This is the latest recevied weather packets stored in our database for station/object GW1468. If no packets are shown the sender has not sent any weather packets the latest 10 day(s).
| Time | Temp. | Humidity | Pressure | Rain* | Wind** | Luminosity | Snow |
|---|---|---|---|---|---|---|---|
| 1777374051 | 12.22° C | 99% | - | 8.89 mm | - | - | - |
| 1777373323 | 12.22° C | 99% | - | 8.64 mm | - | - | - |
| 1777371886 | 12.22° C | 99% | - | 8.13 mm | - | - | - |
| 1777371509 | 12.22° C | 99% | - | 7.87 mm | - | - | - |
| 1777367892 | 12.22° C | 99% | - | 6.86 mm | - | - | - |
| 1777366827 | 12.22° C | 99% | - | 6.6 mm | - | - | - |
| 1777366464 | 12.22° C | 99% | - | 6.6 mm | - | - | - |
| 1777365750 | 12.22° C | 99% | - | 6.35 mm | - | - | - |
| 1777363960 | 12.22° C | 99% | - | 4.32 mm | - | - | - |
| 1777361787 | 12.22° C | 98% | - | 1.02 mm | - | - | - |
| 1777360346 | 12.22° C | 98% | - | 1.02 mm | - | - | - |
| 1777356025 | 15° C | 70% | - | 0 mm | - | - | - |
| 1777350613 | 15.56° C | 58% | - | 0 mm | - | - | - |
| 1777349561 | 15.56° C | 66% | - | 0 mm | - | - | - |
| 1777348489 | 17.22° C | 61% | - | 0 mm | - | - | - |
| 1777347395 | 17.78° C | 62% | - | 0 mm | - | - | - |
| 1777346688 | 17.78° C | 53% | - | 0 mm | - | - | - |
| 1777343791 | 18.89° C | 52% | - | 0 mm | - | - | - |
| 1777340930 | 20° C | 49% | - | 0 mm | - | - | - |
| 1777340547 | 20° C | 50% | - | 0 mm | - | - | - |
| 1777340207 | 20° C | 49% | - | 0 mm | - | - | - |
| 1777332627 | 23.89° C | 42% | - | 0 mm | - | - | - |
| 1777330491 | 24.44° C | 43% | - | 0 mm | - | - | - |
| 1777326860 | 26.11° C | 33% | - | 0 mm | - | - | - |
| 1777326170 | 27.22° C | 38% | - | 0 mm | - | - | - |
* Rain since midnight (hover to see other rain measurements)
** Current wind speed in m/s (hover to see current wind gust speed)